createdAt,value
2022-10-26T00:01:12.925Z,100365.00
2022-10-26T00:03:41.497Z,100370.19
2022-10-26T00:06:14.315Z,100373.72
2022-10-26T00:08:42.095Z,100364.16
2022-10-26T00:11:10.095Z,100371.09
2022-10-26T00:13:38.223Z,100373.75
2022-10-26T00:16:11.110Z,100378.97
2022-10-26T00:18:38.572Z,100377.19
2022-10-26T00:21:07.892Z,100384.19
2022-10-26T00:23:35.305Z,100378.94
2022-10-26T00:26:03.143Z,100383.31
2022-10-26T00:28:31.138Z,100374.62
2022-10-26T00:31:02.906Z,100381.59
2022-10-26T00:33:30.659Z,100378.12
2022-10-26T00:35:58.635Z,100382.47
2022-10-26T00:38:26.018Z,100375.50
2022-10-26T00:40:53.661Z,100370.25
2022-10-26T00:43:21.133Z,100377.22
2022-10-26T00:45:50.571Z,100372.03
2022-10-26T00:48:25.528Z,100370.25
2022-10-26T00:50:54.398Z,100367.66
2022-10-26T00:53:21.893Z,100372.91
2022-10-26T00:55:51.245Z,100367.66
2022-10-26T00:58:20.168Z,100372.03
2022-10-26T01:00:48.165Z,100372.03
2022-10-26T01:03:15.919Z,100373.78
2022-10-26T01:05:45.311Z,100371.19
2022-10-26T01:08:13.272Z,100365.94
2022-10-26T01:10:41.904Z,100371.16
2022-10-26T01:13:09.959Z,100369.44
2022-10-26T01:15:44.333Z,100358.13
2022-10-26T01:18:20.105Z,100359.84
2022-10-26T01:21:21.525Z,100370.31
2022-10-26T01:24:03.815Z,100367.69
2022-10-26T01:26:54.680Z,100364.22
2022-10-26T01:29:31.746Z,100365.97
2022-10-26T01:32:06.208Z,100364.22
2022-10-26T01:34:48.355Z,100366.81
2022-10-26T01:37:22.567Z,100361.66
2022-10-26T01:40:27.131Z,100362.50
2022-10-26T01:42:55.142Z,100365.97
2022-10-26T01:45:22.704Z,100366.84
2022-10-26T01:47:50.378Z,100361.59
2022-10-26T01:50:18.823Z,100360.75
2022-10-26T01:52:50.549Z,100359.03
2022-10-26T01:55:38.930Z,100354.66
2022-10-26T01:58:37.884Z,100359.03
2022-10-26T02:01:28.631Z,100352.03
2022-10-26T02:04:07.461Z,100356.38
2022-10-26T02:07:26.009Z,100356.41
2022-10-26T02:10:28.751Z,100354.66
2022-10-26T02:13:01.802Z,100350.31
2022-10-26T02:15:41.756Z,100350.31
2022-10-26T02:18:27.432Z,100342.47
2022-10-26T02:20:59.327Z,100350.31
2022-10-26T02:23:27.599Z,100345.09
2022-10-26T02:26:00.150Z,100345.09
2022-10-26T02:28:34.470Z,100345.09
2022-10-26T02:31:03.663Z,100349.44
2022-10-26T02:33:35.092Z,100349.44
2022-10-26T02:36:05.420Z,100345.97
2022-10-26T02:38:33.308Z,100352.94
2022-10-26T02:41:01.411Z,100357.28
2022-10-26T02:46:08.681Z,100358.13
2022-10-26T02:48:36.394Z,100361.63
2022-10-26T02:51:10.929Z,100371.19
2022-10-26T02:53:41.128Z,100363.38
2022-10-26T02:56:13.726Z,100370.31
2022-10-26T02:58:45.020Z,100367.69
2022-10-26T03:01:13.433Z,100368.56
2022-10-26T03:03:41.127Z,100370.34
2022-10-26T03:06:08.476Z,100377.28
2022-10-26T03:08:35.798Z,100375.53
2022-10-26T03:11:03.348Z,100371.22
2022-10-26T03:13:30.713Z,100367.72
2022-10-26T03:15:58.015Z,100373.81
2022-10-26T03:18:25.577Z,100374.69
2022-10-26T03:20:52.859Z,100376.41
2022-10-26T03:23:20.127Z,100370.34
2022-10-26T03:25:47.667Z,100378.16
2022-10-26T03:28:14.980Z,100380.78
2022-10-26T03:30:42.333Z,100374.69
2022-10-26T03:33:09.889Z,100383.37
2022-10-26T03:35:37.203Z,100382.50
2022-10-26T03:38:04.531Z,100390.31
2022-10-26T03:40:32.099Z,100387.72
2022-10-26T03:42:59.447Z,100383.37
2022-10-26T03:45:26.744Z,100389.44
2022-10-26T03:47:54.343Z,100392.94
2022-10-26T03:50:23.081Z,100389.44
2022-10-26T03:52:50.695Z,100389.44
2022-10-26T03:55:19.496Z,100392.94
2022-10-26T03:57:46.799Z,100392.94
2022-10-26T04:00:16.316Z,100393.81
2022-10-26T04:02:48.673Z,100402.50
2022-10-26T04:05:16.694Z,100400.75
2022-10-26T04:07:44.363Z,100401.62
2022-10-26T04:10:11.669Z,100401.66
2022-10-26T04:12:39.037Z,100406.84
2022-10-26T04:15:07.416Z,100402.50
2022-10-26T04:17:35.215Z,100403.41
2022-10-26T04:20:02.511Z,100402.53
2022-10-26T04:22:30.062Z,100396.44
2022-10-26T04:24:57.332Z,100394.69
2022-10-26T04:27:24.810Z,100399.03
2022-10-26T04:29:52.339Z,100401.69
2022-10-26T04:32:19.664Z,100398.19
2022-10-26T04:34:46.979Z,100398.19
2022-10-26T04:37:14.559Z,100399.94
2022-10-26T04:39:41.847Z,100386.88
2022-10-26T04:42:09.126Z,100386.84
2022-10-26T04:44:36.703Z,100390.34
2022-10-26T04:47:04.022Z,100391.22
2022-10-26T04:49:31.300Z,100389.47
2022-10-26T04:51:58.874Z,100390.31
2022-10-26T04:54:26.148Z,100386.84
2022-10-26T04:56:53.431Z,100393.81
2022-10-26T04:59:21.000Z,100389.47
2022-10-26T05:01:48.385Z,100386.81
2022-10-26T05:04:15.764Z,100392.94
2022-10-26T05:06:43.365Z,100378.09
2022-10-26T05:09:10.752Z,100381.59
2022-10-26T05:11:38.102Z,100385.09
2022-10-26T05:14:05.651Z,100387.72
2022-10-26T05:16:32.931Z,100389.44
2022-10-26T05:19:00.299Z,100394.69
2022-10-26T05:21:27.853Z,100389.44
2022-10-26T05:23:55.548Z,100394.66
2022-10-26T05:26:23.878Z,100405.97
2022-10-26T05:28:51.777Z,100408.62
2022-10-26T05:31:19.708Z,100411.25
2022-10-26T05:33:50.802Z,100415.59
2022-10-26T05:36:18.837Z,100410.37
2022-10-26T05:38:46.658Z,100415.59
2022-10-26T05:41:14.067Z,100417.34
2022-10-26T05:43:41.721Z,100418.22
2022-10-26T05:46:09.017Z,100421.69
2022-10-26T05:48:36.315Z,100416.50
2022-10-26T05:51:03.991Z,100421.69
2022-10-26T05:53:31.295Z,100421.69
2022-10-26T05:55:58.824Z,100418.19
2022-10-26T05:58:26.711Z,100426.87
2022-10-26T06:01:11.388Z,100427.72
2022-10-26T06:03:55.945Z,100429.47
2022-10-26T06:06:23.432Z,100432.91
2022-10-26T06:08:51.186Z,100431.13
2022-10-26T06:11:18.724Z,100433.69
2022-10-26T06:13:46.196Z,100431.81
2022-10-26T06:16:32.250Z,100439.66
2022-10-26T06:19:34.591Z,100451.78
2022-10-26T06:22:24.345Z,100447.34
2022-10-26T06:25:12.625Z,100445.59
2022-10-26T06:27:49.579Z,100447.22
2022-10-26T06:30:17.138Z,100454.06
2022-10-26T06:32:46.000Z,100460.16
2022-10-26T06:35:30.802Z,100454.81
2022-10-26T06:38:02.443Z,100459.03
2022-10-26T06:40:31.452Z,100451.28
2022-10-26T06:43:00.177Z,100451.09
2022-10-26T06:45:27.695Z,100459.78
2022-10-26T06:47:59.381Z,100460.56
2022-10-26T06:50:41.029Z,100463.97
2022-10-26T06:53:32.359Z,100453.38
2022-10-26T06:56:00.800Z,100463.13
2022-10-26T06:58:30.602Z,100471.06
2022-10-26T07:00:58.085Z,100465.66
2022-10-26T07:03:25.759Z,100471.63
2022-10-26T07:05:53.088Z,100475.09
2022-10-26T07:08:20.390Z,100468.66
2022-10-26T07:10:47.980Z,100468.72
2022-10-26T07:13:15.299Z,100459.03
2022-10-26T07:15:43.365Z,100464.25
2022-10-26T07:18:10.978Z,100461.47
2022-10-26T07:20:39.571Z,100470.03
2022-10-26T07:23:08.147Z,100466.44
2022-10-26T07:25:38.873Z,100469.81
2022-10-26T07:28:10.061Z,100472.97
2022-10-26T07:30:39.384Z,100480.72
2022-10-26T07:33:11.459Z,100479.97
2022-10-26T07:35:39.020Z,100484.16
2022-10-26T07:38:06.690Z,100479.31
2022-10-26T07:40:34.354Z,100479.44
2022-10-26T07:43:01.960Z,100474.19
2022-10-26T07:45:29.737Z,100481.72
2022-10-26T07:47:57.524Z,100478.84
2022-10-26T07:50:25.408Z,100479.78
2022-10-26T07:52:52.969Z,100470.97
2022-10-26T07:55:20.524Z,100477.06
2022-10-26T07:57:51.018Z,100471.91
2022-10-26T08:00:22.094Z,100470.75
2022-10-26T08:02:49.758Z,100477.00
2022-10-26T08:05:17.401Z,100481.44
2022-10-26T08:07:45.888Z,100475.97
2022-10-26T08:10:14.423Z,100480.19
2022-10-26T08:12:44.741Z,100472.13
2022-10-26T08:15:12.266Z,100480.25
2022-10-26T08:17:39.813Z,100473.53
2022-10-26T08:20:07.523Z,100483.12
2022-10-26T08:22:34.836Z,100486.53
2022-10-26T08:25:02.616Z,100484.63
2022-10-26T08:27:29.926Z,100481.47
2022-10-26T08:29:57.248Z,100476.38
2022-10-26T08:32:24.842Z,100478.09
2022-10-26T08:35:10.082Z,100473.56
2022-10-26T08:37:37.624Z,100469.81
2022-10-26T08:40:05.299Z,100477.19
2022-10-26T08:42:44.545Z,100475.91
2022-10-26T08:45:31.770Z,100482.94
2022-10-26T08:48:06.686Z,100486.69
2022-10-26T08:50:42.958Z,100492.53
2022-10-26T08:53:37.419Z,100503.31
2022-10-26T08:56:16.069Z,100502.41
2022-10-26T08:58:50.066Z,100508.53
2022-10-26T09:01:18.271Z,100502.03
2022-10-26T09:03:45.641Z,100503.47
2022-10-26T09:06:43.109Z,100501.28
2022-10-26T09:09:39.539Z,100496.88
2022-10-26T09:12:15.188Z,100502.78
2022-10-26T09:15:12.256Z,100502.03
2022-10-26T09:17:45.693Z,100499.19
2022-10-26T09:20:49.571Z,100500.81
2022-10-26T09:23:42.917Z,100496.75
2022-10-26T09:26:15.481Z,100510.66
2022-10-26T09:28:44.990Z,100513.06
2022-10-26T09:31:15.608Z,100511.66
2022-10-26T09:33:42.917Z,100513.84
2022-10-26T09:36:16.813Z,100518.06
2022-10-26T09:38:49.348Z,100520.38
2022-10-26T09:41:47.677Z,100524.38
2022-10-26T09:44:19.844Z,100512.06
2022-10-26T09:46:58.623Z,100520.53
2022-10-26T09:49:37.595Z,100517.00
2022-10-26T09:52:04.965Z,100515.25
2022-10-26T09:54:32.536Z,100523.00
2022-10-26T09:57:02.093Z,100527.25
2022-10-26T09:59:30.401Z,100531.25
2022-10-26T10:01:58.082Z,100528.69
2022-10-26T10:04:28.544Z,100535.03
2022-10-26T10:07:01.461Z,100530.88
2022-10-26T10:09:29.090Z,100525.97
2022-10-26T10:12:03.764Z,100526.97
2022-10-26T10:14:36.168Z,100530.94
2022-10-26T10:17:10.848Z,100528.28
2022-10-26T10:19:38.708Z,100533.69
2022-10-26T10:22:19.654Z,100538.28
2022-10-26T10:24:58.244Z,100533.56
2022-10-26T10:27:26.475Z,100537.84
2022-10-26T10:29:59.821Z,100526.47
2022-10-26T10:32:35.407Z,100525.88
2022-10-26T10:35:24.662Z,100526.81
2022-10-26T10:37:52.340Z,100526.69
2022-10-26T10:40:23.035Z,100529.09
2022-10-26T10:42:52.313Z,100523.75
2022-10-26T10:45:25.135Z,100527.75
2022-10-26T10:48:12.083Z,100526.62
2022-10-26T10:50:50.531Z,100529.44
2022-10-26T10:53:26.417Z,100515.06
2022-10-26T10:56:20.623Z,100526.31
2022-10-26T10:59:25.752Z,100524.38
2022-10-26T11:02:19.711Z,100515.06
2022-10-26T11:05:14.032Z,100516.13
2022-10-26T11:07:49.837Z,100512.38
2022-10-26T11:10:17.868Z,100518.09
2022-10-26T11:12:50.668Z,100508.09
2022-10-26T11:15:21.221Z,100504.53
2022-10-26T11:18:14.324Z,100499.28
2022-10-26T11:20:47.467Z,100502.06
2022-10-26T11:23:48.964Z,100500.94
2022-10-26T11:26:22.270Z,100502.06
2022-10-26T11:28:59.128Z,100510.69
2022-10-26T11:31:31.757Z,100503.62
2022-10-26T11:34:17.977Z,100496.09
2022-10-26T11:36:49.381Z,100498.50
2022-10-26T11:39:42.986Z,100492.19
2022-10-26T11:42:27.511Z,100492.53
2022-10-26T11:45:02.196Z,100491.72
2022-10-26T11:47:38.835Z,100490.69
2022-10-26T11:50:17.871Z,100479.28
2022-10-26T11:52:50.378Z,100485.78
2022-10-26T11:55:18.735Z,100495.59
2022-10-26T11:57:47.097Z,100487.72
2022-10-26T12:00:17.206Z,100493.28
2022-10-26T12:02:51.120Z,100482.38
2022-10-26T12:05:35.202Z,100479.09
2022-10-26T12:08:11.718Z,100480.09
2022-10-26T12:10:41.841Z,100478.34
2022-10-26T12:13:24.946Z,100479.09
2022-10-26T12:16:04.053Z,100481.59
2022-10-26T12:18:57.115Z,100478.97
2022-10-26T12:21:28.026Z,100482.97
2022-10-26T12:24:02.214Z,100486.06
2022-10-26T12:26:29.363Z,100489.88
2022-10-26T12:29:03.043Z,100483.66
2022-10-26T12:31:36.742Z,100485.44
2022-10-26T12:34:15.359Z,100479.31
2022-10-26T12:36:54.948Z,100475.56
2022-10-26T12:39:40.500Z,100473.22
2022-10-26T12:42:28.947Z,100473.59
2022-10-26T12:44:59.467Z,100475.44
2022-10-26T12:47:32.584Z,100471.44
2022-10-26T12:50:06.094Z,100468.75
2022-10-26T12:52:54.875Z,100475.84
2022-10-26T12:55:34.626Z,100472.94
2022-10-26T12:58:26.525Z,100470.84
2022-10-26T13:01:00.005Z,100473.75
2022-10-26T13:03:47.454Z,100463.31
2022-10-26T13:06:34.332Z,100466.69
2022-10-26T13:11:46.978Z,100470.75
2022-10-26T13:14:23.611Z,100472.91
2022-10-26T13:16:51.276Z,100472.47
2022-10-26T13:19:31.383Z,100465.81
2022-10-26T13:21:59.787Z,100467.50
2022-10-26T13:24:29.655Z,100470.66
2022-10-26T13:27:05.703Z,100461.75
2022-10-26T13:29:54.670Z,100468.00
2022-10-26T13:32:22.197Z,100470.66
2022-10-26T13:34:49.803Z,100476.59
2022-10-26T13:37:21.964Z,100468.38
2022-10-26T13:39:50.535Z,100474.22
2022-10-26T13:42:22.285Z,100464.75
2022-10-26T13:45:11.747Z,100474.47
2022-10-26T13:47:45.982Z,100473.81
2022-10-26T13:50:27.548Z,100477.37
2022-10-26T13:53:00.958Z,100477.44
2022-10-26T13:55:36.503Z,100470.47
2022-10-26T13:58:20.736Z,100478.41
2022-10-26T14:01:00.508Z,100486.41
2022-10-26T14:03:28.567Z,100480.38
2022-10-26T14:05:56.339Z,100480.78
2022-10-26T14:08:23.699Z,100476.38
2022-10-26T14:10:56.639Z,100484.22
2022-10-26T14:13:26.359Z,100479.59
2022-10-26T14:15:58.125Z,100485.09
2022-10-26T14:18:30.431Z,100481.81
2022-10-26T14:21:03.468Z,100478.94
2022-10-26T14:23:36.549Z,100482.75
2022-10-26T14:26:04.688Z,100480.84
2022-10-26T14:28:33.328Z,100480.81
2022-10-26T14:31:17.941Z,100481.56
2022-10-26T14:33:47.840Z,100491.47
2022-10-26T14:36:16.086Z,100486.62
2022-10-26T14:38:45.270Z,100493.16
2022-10-26T14:41:15.843Z,100484.50
2022-10-26T14:43:44.280Z,100490.56
2022-10-26T14:46:15.319Z,100489.69
2022-10-26T14:48:52.698Z,100492.47
2022-10-26T14:51:22.333Z,100491.66
2022-10-26T14:53:51.693Z,100499.25
2022-10-26T14:56:35.262Z,100494.87
2022-10-26T14:59:24.827Z,100492.47
2022-10-26T15:02:10.307Z,100502.09
2022-10-26T15:04:40.044Z,100500.47
2022-10-26T15:07:13.433Z,100503.03
2022-10-26T15:09:52.072Z,100497.16
2022-10-26T15:12:27.371Z,100501.69
2022-10-26T15:14:55.520Z,100496.34
2022-10-26T15:17:27.480Z,100496.53
2022-10-26T15:19:55.183Z,100501.13
2022-10-26T15:22:28.363Z,100498.44
2022-10-26T15:25:03.087Z,100501.25
2022-10-26T15:27:30.702Z,100498.44
2022-10-26T15:30:27.246Z,100504.78
2022-10-26T15:32:55.673Z,100504.09
2022-10-26T15:35:26.650Z,100510.38
2022-10-26T15:37:55.452Z,100513.56
2022-10-26T15:42:59.089Z,100512.38
2022-10-26T15:45:32.897Z,100515.06
2022-10-26T15:48:16.790Z,100521.16
2022-10-26T15:50:44.355Z,100520.47
2022-10-26T15:53:18.252Z,100518.81
2022-10-26T15:55:46.171Z,100523.28
2022-10-26T15:58:13.625Z,100522.47
2022-10-26T16:00:40.932Z,100526.00
2022-10-26T16:03:16.698Z,100524.25
2022-10-26T16:05:44.305Z,100528.50
2022-10-26T16:08:17.117Z,100529.63
2022-10-26T16:10:45.668Z,100531.47
2022-10-26T16:13:14.123Z,100530.47
2022-10-26T16:15:41.897Z,100533.25
2022-10-26T16:18:09.217Z,100535.53
2022-10-26T16:20:37.208Z,100538.63
2022-10-26T16:23:07.242Z,100537.56
2022-10-26T16:25:40.706Z,100540.38
2022-10-26T16:28:09.833Z,100548.87
2022-10-26T16:30:37.163Z,100550.91
2022-10-26T16:33:04.511Z,100543.34
2022-10-26T16:35:32.088Z,100549.56
2022-10-26T16:37:59.382Z,100557.38
2022-10-26T16:40:26.708Z,100560.97
2022-10-26T16:42:54.300Z,100564.53
2022-10-26T16:45:21.646Z,100568.31
2022-10-26T16:47:49.395Z,100564.62
2022-10-26T16:50:20.437Z,100562.81
2022-10-26T16:52:47.751Z,100571.88
2022-10-26T16:55:15.546Z,100571.88
2022-10-26T16:57:43.098Z,100572.59
2022-10-26T17:00:10.656Z,100575.47
2022-10-26T17:02:38.069Z,100571.84
2022-10-26T17:05:07.379Z,100567.66
2022-10-26T17:07:35.275Z,100569.25
2022-10-26T17:10:02.675Z,100576.37
2022-10-26T17:12:30.464Z,100578.12
2022-10-26T17:14:58.887Z,100581.97
2022-10-26T17:17:26.523Z,100586.25
2022-10-26T17:19:54.118Z,100587.91
2022-10-26T17:22:21.689Z,100591.44
2022-10-26T17:24:48.979Z,100588.94
2022-10-26T17:27:17.389Z,100589.81
2022-10-26T17:29:44.770Z,100599.66
2022-10-26T17:32:14.235Z,100601.28
2022-10-26T17:34:42.216Z,100605.78
2022-10-26T17:37:09.714Z,100618.16
2022-10-26T17:39:37.112Z,100611.25
2022-10-26T17:42:04.680Z,100611.00
2022-10-26T17:44:33.714Z,100616.37
2022-10-26T17:47:01.061Z,100627.00
2022-10-26T17:49:30.249Z,100620.84
2022-10-26T17:52:00.742Z,100635.97
2022-10-26T17:54:27.936Z,100627.28
2022-10-26T17:56:55.529Z,100638.53
2022-10-26T17:59:22.837Z,100635.50
2022-10-26T18:01:52.372Z,100635.72
2022-10-26T18:04:22.390Z,100637.22
2022-10-26T18:06:50.574Z,100633.59
2022-10-26T18:09:17.915Z,100635.38
2022-10-26T18:11:45.468Z,100628.31
2022-10-26T18:14:13.819Z,100631.06
2022-10-26T18:16:41.137Z,100633.63
2022-10-26T18:19:09.664Z,100635.38
2022-10-26T18:21:39.828Z,100637.34
2022-10-26T18:24:07.630Z,100630.22
2022-10-26T18:26:35.719Z,100629.53
2022-10-26T18:29:03.800Z,100635.75
2022-10-26T18:31:32.118Z,100627.06
2022-10-26T18:34:01.270Z,100634.88
2022-10-26T18:36:29.299Z,100631.47
2022-10-26T18:38:57.166Z,100634.34
2022-10-26T18:41:25.476Z,100644.75
2022-10-26T18:43:55.413Z,100640.28
2022-10-26T18:46:25.411Z,100638.59
2022-10-26T18:48:56.901Z,100643.09
2022-10-26T18:51:28.608Z,100644.09
2022-10-26T18:53:57.372Z,100634.41
2022-10-26T18:56:25.581Z,100645.12
2022-10-26T18:58:56.144Z,100646.06
2022-10-26T19:01:25.784Z,100662.06
2022-10-26T19:04:11.227Z,100650.63
2022-10-26T19:06:41.054Z,100657.75
2022-10-26T19:09:10.157Z,100672.59
2022-10-26T19:11:38.100Z,100668.34
2022-10-26T19:14:07.424Z,100678.97
2022-10-26T19:16:50.587Z,100687.78
2022-10-26T19:19:19.748Z,100688.69
2022-10-26T19:21:48.385Z,100694.87
2022-10-26T19:24:17.994Z,100696.78
2022-10-26T19:26:46.376Z,100693.44
2022-10-26T19:29:15.847Z,100703.22
2022-10-26T19:31:47.573Z,100713.72
2022-10-26T19:34:18.178Z,100709.34
2022-10-26T19:36:46.759Z,100717.22
2022-10-26T19:39:15.734Z,100720.81
2022-10-26T19:41:44.087Z,100725.25
2022-10-26T19:44:12.253Z,100723.50
2022-10-26T19:46:39.976Z,100720.00
2022-10-26T19:49:07.792Z,100723.50
2022-10-26T19:51:35.116Z,100725.19
2022-10-26T19:54:04.388Z,100724.41
2022-10-26T19:56:32.962Z,100727.91
2022-10-26T19:59:00.985Z,100739.28
2022-10-26T20:01:28.665Z,100739.25
2022-10-26T20:03:57.160Z,100744.50
2022-10-26T20:06:24.710Z,100755.09
2022-10-26T20:08:52.052Z,100749.91
2022-10-26T20:11:20.016Z,100746.47
2022-10-26T20:13:47.834Z,100754.34
2022-10-26T20:16:16.690Z,100752.63
2022-10-26T20:18:48.002Z,100749.09
2022-10-26T20:21:16.896Z,100754.41
2022-10-26T20:23:44.775Z,100751.78
2022-10-26T20:26:18.445Z,100756.19
2022-10-26T20:28:49.146Z,100765.81
2022-10-26T20:31:16.562Z,100760.47
2022-10-26T20:33:43.905Z,100774.53
2022-10-26T20:36:11.576Z,100768.44
2022-10-26T20:38:39.737Z,100765.63
2022-10-26T20:41:10.379Z,100763.19
2022-10-26T20:43:39.464Z,100765.81
2022-10-26T20:46:09.985Z,100771.03
2022-10-26T20:48:38.626Z,100770.97
2022-10-26T20:51:07.422Z,100771.88
2022-10-26T20:53:36.163Z,100763.97
2022-10-26T20:56:06.768Z,100757.97
2022-10-26T20:58:56.411Z,100765.81
2022-10-26T21:01:28.052Z,100771.06
2022-10-26T21:03:57.129Z,100770.28
2022-10-26T21:06:25.647Z,100784.28
2022-10-26T21:08:54.321Z,100786.91
2022-10-26T21:11:23.448Z,100788.72
2022-10-26T21:13:53.102Z,100786.91
2022-10-26T21:18:52.947Z,100783.50
2022-10-26T21:21:20.503Z,100775.63
2022-10-26T21:23:48.033Z,100778.25
2022-10-26T21:26:15.596Z,100770.41
2022-10-26T21:28:47.163Z,100773.00
2022-10-26T21:31:17.771Z,100777.34
2022-10-26T21:33:46.249Z,100773.03
2022-10-26T21:36:14.853Z,100777.31
2022-10-26T21:38:44.352Z,100780.00
2022-10-26T21:41:16.865Z,100773.84
2022-10-26T21:43:46.047Z,100778.16
2022-10-26T21:46:14.021Z,100783.47
2022-10-26T21:48:41.646Z,100773.00
2022-10-26T21:51:12.849Z,100784.41
2022-10-26T21:53:40.685Z,100783.59
2022-10-26T21:56:11.705Z,100787.88
2022-10-26T21:58:39.650Z,100783.47
2022-10-26T22:01:15.220Z,100779.97
2022-10-26T22:03:43.260Z,100782.63
2022-10-26T22:06:12.948Z,100783.50
2022-10-26T22:08:40.523Z,100775.72
2022-10-26T22:11:15.158Z,100766.00
2022-10-26T22:13:44.299Z,100766.06
2022-10-26T22:16:18.971Z,100773.13
2022-10-26T22:18:46.872Z,100786.31
2022-10-26T22:21:16.356Z,100776.69
2022-10-26T22:23:44.263Z,100779.31
2022-10-26T22:26:16.790Z,100782.81
2022-10-26T22:28:45.653Z,100788.06
2022-10-26T22:31:15.804Z,100785.31
2022-10-26T22:33:43.868Z,100786.22
2022-10-26T22:36:13.364Z,100785.44
2022-10-26T22:38:41.244Z,100788.00
2022-10-26T22:41:09.694Z,100788.84
2022-10-26T22:43:37.520Z,100796.69
2022-10-26T22:46:09.760Z,100803.66
2022-10-26T22:48:37.742Z,100810.63
2022-10-26T22:51:07.297Z,100802.69
2022-10-26T22:53:34.594Z,100804.50
2022-10-26T22:56:03.072Z,100794.03
2022-10-26T22:58:30.348Z,100801.94
2022-10-26T23:01:10.188Z,100801.97
2022-10-26T23:03:37.887Z,100812.50
2022-10-26T23:06:10.072Z,100814.22
2022-10-26T23:08:38.193Z,100808.16
2022-10-26T23:11:08.097Z,100808.09
2022-10-26T23:13:35.417Z,100814.22
2022-10-26T23:16:07.237Z,100814.31
2022-10-26T23:18:35.276Z,100822.22
2022-10-26T23:21:03.715Z,100825.66
2022-10-26T23:23:31.108Z,100818.66
2022-10-26T23:26:05.968Z,100820.41
2022-10-26T23:28:34.779Z,100825.62
2022-10-26T23:31:02.642Z,100826.59
2022-10-26T23:33:30.156Z,100818.66
2022-10-26T23:35:57.909Z,100818.66
2022-10-26T23:38:26.033Z,100816.87
2022-10-26T23:40:55.614Z,100824.81
2022-10-26T23:43:23.471Z,100835.31
2022-10-26T23:45:50.942Z,100831.84
2022-10-26T23:48:19.353Z,100819.59
2022-10-26T23:50:48.200Z,100818.66
2022-10-26T23:53:17.186Z,100823.91
2022-10-26T23:55:45.628Z,100827.37
2022-10-26T23:58:14.049Z,100830.00
